sensor_id;sensor_type;location;lat;lon;timestamp;pressure;altitude;pressure_sealevel;temperature;humidity
8653;BME280;4364;52.426;9.424;2023-11-21T00:02:38;100481.91;;;7.09;100.00
8653;BME280;4364;52.426;9.424;2023-11-21T00:05:11;100484.00;;;7.01;100.00
8653;BME280;4364;52.426;9.424;2023-11-21T00:07:38;100473.72;;;6.98;100.00
8653;BME280;4364;52.426;9.424;2023-11-21T00:10:06;100476.16;;;7.00;100.00
8653;BME280;4364;52.426;9.424;2023-11-21T00:12:34;100474.53;;;6.99;100.00
8653;BME280;4364;52.426;9.424;2023-11-21T00:15:01;100477.19;;;6.94;100.00
8653;BME280;4364;52.426;9.424;2023-11-21T00:17:28;100473.63;;;6.88;100.00
8653;BME280;4364;52.426;9.424;2023-11-21T00:19:55;100476.94;;;6.95;100.00
8653;BME280;4364;52.426;9.424;2023-11-21T00:22:21;100478.81;;;6.95;100.00
8653;BME280;4364;52.426;9.424;2023-11-21T00:24:48;100480.75;;;6.99;100.00
8653;BME280;4364;52.426;9.424;2023-11-21T00:27:14;100484.22;;;6.95;100.00
8653;BME280;4364;52.426;9.424;2023-11-21T00:29:41;100484.00;;;7.01;100.00
8653;BME280;4364;52.426;9.424;2023-11-21T00:32:08;100485.59;;;6.97;100.00
8653;BME280;4364;52.426;9.424;2023-11-21T00:34:35;100486.97;;;7.00;100.00
8653;BME280;4364;52.426;9.424;2023-11-21T00:37:01;100485.81;;;6.91;100.00
8653;BME280;4364;52.426;9.424;2023-11-21T00:39:29;100488.53;;;6.91;100.00
8653;BME280;4364;52.426;9.424;2023-11-21T00:41:55;100496.34;;;6.87;100.00
8653;BME280;4364;52.426;9.424;2023-11-21T00:44:22;100497.53;;;7.01;100.00
8653;BME280;4364;52.426;9.424;2023-11-21T00:46:48;100495.88;;;6.95;100.00
8653;BME280;4364;52.426;9.424;2023-11-21T00:49:15;100496.97;;;6.99;100.00
8653;BME280;4364;52.426;9.424;2023-11-21T00:51:42;100499.69;;;6.99;100.00
8653;BME280;4364;52.426;9.424;2023-11-21T00:54:08;100503.75;;;7.02;100.00
8653;BME280;4364;52.426;9.424;2023-11-21T00:56:35;100501.06;;;7.02;100.00
8653;BME280;4364;52.426;9.424;2023-11-21T00:59:01;100500.25;;;7.07;100.00
8653;BME280;4364;52.426;9.424;2023-11-21T01:01:28;100502.97;;;7.07;100.00
8653;BME280;4364;52.426;9.424;2023-11-21T01:03:55;100511.63;;;7.03;100.00
8653;BME280;4364;52.426;9.424;2023-11-21T01:06:21;100512.38;;;6.99;100.00
8653;BME280;4364;52.426;9.424;2023-11-21T01:08:48;100513.19;;;6.99;100.00
8653;BME280;4364;52.426;9.424;2023-11-21T01:11:15;100515.84;;;6.94;100.00
8653;BME280;4364;52.426;9.424;2023-11-21T01:13:42;100516.66;;;6.95;100.00
8653;BME280;4364;52.426;9.424;2023-11-21T01:16:08;100521.25;;;6.94;100.00
8653;BME280;4364;52.426;9.424;2023-11-21T01:18:35;100527.44;;;6.90;100.00
8653;BME280;4364;52.426;9.424;2023-11-21T01:21:02;100523.16;;;6.94;100.00
8653;BME280;4364;52.426;9.424;2023-11-21T01:23:30;100522.31;;;6.93;100.00
8653;BME280;4364;52.426;9.424;2023-11-21T01:25:57;100527.25;;;7.01;100.00
8653;BME280;4364;52.426;9.424;2023-11-21T01:28:24;100532.06;;;6.94;100.00
8653;BME280;4364;52.426;9.424;2023-11-21T01:30:50;100534.28;;;6.97;100.00
8653;BME280;4364;52.426;9.424;2023-11-21T01:33:18;100534.31;;;7.02;100.00
8653;BME280;4364;52.426;9.424;2023-11-21T01:35:45;100534.81;;;6.99;100.00
8653;BME280;4364;52.426;9.424;2023-11-21T01:38:12;100531.34;;;7.04;100.00
8653;BME280;4364;52.426;9.424;2023-11-21T01:40:39;100532.94;;;7.00;100.00
8653;BME280;4364;52.426;9.424;2023-11-21T01:43:06;100545.75;;;7.15;100.00
8653;BME280;4364;52.426;9.424;2023-11-21T01:45:34;100536.75;;;7.04;100.00
8653;BME280;4364;52.426;9.424;2023-11-21T01:48:01;100537.78;;;6.98;100.00
8653;BME280;4364;52.426;9.424;2023-11-21T01:50:30;100533.63;;;6.85;100.00
8653;BME280;4364;52.426;9.424;2023-11-21T01:52:57;100529.38;;;6.94;100.00
8653;BME280;4364;52.426;9.424;2023-11-21T01:55:24;100531.22;;;6.89;100.00
8653;BME280;4364;52.426;9.424;2023-11-21T01:57:55;100533.31;;;6.81;100.00
8653;BME280;4364;52.426;9.424;2023-11-21T02:00:23;100535.75;;;6.83;100.00
8653;BME280;4364;52.426;9.424;2023-11-21T02:02:51;100544.94;;;6.82;100.00
8653;BME280;4364;52.426;9.424;2023-11-21T02:05:19;100536.03;;;6.86;100.00
8653;BME280;4364;52.426;9.424;2023-11-21T02:07:46;100537.19;;;6.91;100.00
8653;BME280;4364;52.426;9.424;2023-11-21T02:10:16;100530.75;;;6.97;100.00
8653;BME280;4364;52.426;9.424;2023-11-21T02:12:44;100535.03;;;6.93;100.00
8653;BME280;4364;52.426;9.424;2023-11-21T02:15:15;100532.88;;;6.95;100.00
8653;BME280;4364;52.426;9.424;2023-11-21T02:17:47;100538.44;;;7.10;100.00
8653;BME280;4364;52.426;9.424;2023-11-21T02:20:20;100541.53;;;6.92;100.00
8653;BME280;4364;52.426;9.424;2023-11-21T02:22:50;100533.56;;;7.07;100.00
8653;BME280;4364;52.426;9.424;2023-11-21T02:25:26;100535.78;;;6.88;100.00
8653;BME280;4364;52.426;9.424;2023-11-21T02:27:55;100545.88;;;6.98;100.00
8653;BME280;4364;52.426;9.424;2023-11-21T02:30:22;100547.53;;;6.99;100.00
8653;BME280;4364;52.426;9.424;2023-11-21T02:32:49;100554.31;;;7.01;100.00
8653;BME280;4364;52.426;9.424;2023-11-21T02:35:15;100546.56;;;7.10;100.00
8653;BME280;4364;52.426;9.424;2023-11-21T02:37:42;100554.03;;;7.03;100.00
8653;BME280;4364;52.426;9.424;2023-11-21T02:40:10;100557.03;;;7.07;100.00
8653;BME280;4364;52.426;9.424;2023-11-21T02:42:39;100561.84;;;6.99;100.00
8653;BME280;4364;52.426;9.424;2023-11-21T02:45:07;100560.25;;;6.98;100.00
8653;BME280;4364;52.426;9.424;2023-11-21T02:47:34;100561.06;;;6.99;100.00
8653;BME280;4364;52.426;9.424;2023-11-21T02:50:01;100563.47;;;6.95;100.00
8653;BME280;4364;52.426;9.424;2023-11-21T02:52:27;100562.00;;;6.88;100.00
8653;BME280;4364;52.426;9.424;2023-11-21T02:54:54;100563.97;;;6.92;100.00
8653;BME280;4364;52.426;9.424;2023-11-21T02:57:21;100564.25;;;6.96;100.00
8653;BME280;4364;52.426;9.424;2023-11-21T02:59:47;100575.94;;;7.01;100.00
8653;BME280;4364;52.426;9.424;2023-11-21T03:02:14;100569.91;;;6.94;100.00
8653;BME280;4364;52.426;9.424;2023-11-21T03:04:42;100572.94;;;6.98;100.00
8653;BME280;4364;52.426;9.424;2023-11-21T03:07:09;100577.22;;;6.94;100.00
8653;BME280;4364;52.426;9.424;2023-11-21T03:09:36;100577.03;;;7.00;100.00
8653;BME280;4364;52.426;9.424;2023-11-21T03:12:02;100581.72;;;7.10;100.00
8653;BME280;4364;52.426;9.424;2023-11-21T03:14:29;100585.81;;;7.18;100.00
8653;BME280;4364;52.426;9.424;2023-11-21T03:16:55;100586.66;;;7.18;100.00
8653;BME280;4364;52.426;9.424;2023-11-21T03:19:22;100584.97;;;7.12;100.00
8653;BME280;4364;52.426;9.424;2023-11-21T03:21:50;100585.53;;;7.14;100.00
8653;BME280;4364;52.426;9.424;2023-11-21T03:24:19;100587.13;;;7.10;100.00
8653;BME280;4364;52.426;9.424;2023-11-21T03:26:46;100592.81;;;7.14;100.00
8653;BME280;4364;52.426;9.424;2023-11-21T03:29:13;100596.00;;;7.05;100.00
8653;BME280;4364;52.426;9.424;2023-11-21T03:31:40;100597.06;;;7.04;100.00
8653;BME280;4364;52.426;9.424;2023-11-21T03:34:11;100599.00;;;7.09;100.00
8653;BME280;4364;52.426;9.424;2023-11-21T03:36:38;100597.97;;;7.15;100.00
8653;BME280;4364;52.426;9.424;2023-11-21T03:39:04;100599.50;;;7.06;100.00
8653;BME280;4364;52.426;9.424;2023-11-21T03:41:31;100606.31;;;7.09;100.00
8653;BME280;4364;52.426;9.424;2023-11-21T03:43:58;100605.50;;;7.13;100.00
8653;BME280;4364;52.426;9.424;2023-11-21T03:46:25;100608.28;;;7.18;100.00
8653;BME280;4364;52.426;9.424;2023-11-21T03:48:52;100609.66;;;7.21;100.00
8653;BME280;4364;52.426;9.424;2023-11-21T03:51:19;100613.78;;;7.29;100.00
8653;BME280;4364;52.426;9.424;2023-11-21T03:53:45;100609.31;;;7.12;100.00
8653;BME280;4364;52.426;9.424;2023-11-21T03:56:13;100616.06;;;7.15;100.00
8653;BME280;4364;52.426;9.424;2023-11-21T03:58:40;100617.38;;;7.07;100.00
8653;BME280;4364;52.426;9.424;2023-11-21T04:01:07;100619.81;;;7.09;100.00
8653;BME280;4364;52.426;9.424;2023-11-21T04:03:33;100623.03;;;7.05;100.00
8653;BME280;4364;52.426;9.424;2023-11-21T04:06:00;100618.44;;;7.06;100.00
8653;BME280;4364;52.426;9.424;2023-11-21T04:08:28;100627.88;;;7.03;100.00
8653;BME280;4364;52.426;9.424;2023-11-21T04:10:55;100629.09;;;7.18;100.00
8653;BME280;4364;52.426;9.424;2023-11-21T04:13:21;100630.34;;;7.05;100.00
8653;BME280;4364;52.426;9.424;2023-11-21T04:15:48;100633.91;;;7.11;100.00
8653;BME280;4364;52.426;9.424;2023-11-21T04:18:15;100638.13;;;7.01;100.00
8653;BME280;4364;52.426;9.424;2023-11-21T04:20:41;100643.94;;;7.15;100.00
8653;BME280;4364;52.426;9.424;2023-11-21T04:23:08;100643.94;;;7.15;100.00
8653;BME280;4364;52.426;9.424;2023-11-21T04:25:36;100659.25;;;7.04;100.00
8653;BME280;4364;52.426;9.424;2023-11-21T04:28:03;100652.56;;;7.12;100.00
8653;BME280;4364;52.426;9.424;2023-11-21T04:30:30;100655.41;;;7.00;100.00
8653;BME280;4364;52.426;9.424;2023-11-21T04:32:57;100666.59;;;7.09;100.00
8653;BME280;4364;52.426;9.424;2023-11-21T04:35:24;100661.50;;;7.13;100.00
8653;BME280;4364;52.426;9.424;2023-11-21T04:37:50;100668.03;;;7.17;100.00
8653;BME280;4364;52.426;9.424;2023-11-21T04:40:17;100668.28;;;7.15;100.00
8653;BME280;4364;52.426;9.424;2023-11-21T04:42:43;100674.19;;;7.12;100.00
8653;BME280;4364;52.426;9.424;2023-11-21T04:45:10;100677.91;;;7.06;100.00
8653;BME280;4364;52.426;9.424;2023-11-21T04:47:39;100678.72;;;7.07;100.00
8653;BME280;4364;52.426;9.424;2023-11-21T04:50:06;100684.97;;;7.07;100.00
8653;BME280;4364;52.426;9.424;2023-11-21T04:52:32;100682.63;;;7.16;100.00
8653;BME280;4364;52.426;9.424;2023-11-21T04:54:59;100689.09;;;7.15;100.00
8653;BME280;4364;52.426;9.424;2023-11-21T04:57:27;100686.06;;;7.11;100.00
8653;BME280;4364;52.426;9.424;2023-11-21T04:59:55;100687.16;;;7.10;100.00
8653;BME280;4364;52.426;9.424;2023-11-21T05:02:21;100698.28;;;7.14;100.00
8653;BME280;4364;52.426;9.424;2023-11-21T05:05:01;100699.09;;;7.14;100.00
8653;BME280;4364;52.426;9.424;2023-11-21T05:07:28;100702.81;;;7.08;100.00
8653;BME280;4364;52.426;9.424;2023-11-21T05:09:57;100703.13;;;7.12;100.00
8653;BME280;4364;52.426;9.424;2023-11-21T05:12:24;100712.13;;;7.17;100.00
8653;BME280;4364;52.426;9.424;2023-11-21T05:14:51;100708.56;;;7.12;100.00
8653;BME280;4364;52.426;9.424;2023-11-21T05:17:17;100699.03;;;7.09;100.00
8653;BME280;4364;52.426;9.424;2023-11-21T05:19:44;100711.56;;;7.15;100.00
8653;BME280;4364;52.426;9.424;2023-11-21T05:22:15;100716.72;;;7.17;100.00
8653;BME280;4364;52.426;9.424;2023-11-21T05:24:41;100721.53;;;7.15;100.00
8653;BME280;4364;52.426;9.424;2023-11-21T05:27:08;100713.75;;;7.18;100.00
8653;BME280;4364;52.426;9.424;2023-11-21T05:29:36;100719.41;;;7.17;100.00
8653;BME280;4364;52.426;9.424;2023-11-21T05:32:04;100721.88;;;7.18;100.00
8653;BME280;4364;52.426;9.424;2023-11-21T05:34:30;100723.25;;;7.21;100.00
8653;BME280;4364;52.426;9.424;2023-11-21T05:36:57;100731.59;;;7.19;100.00
8653;BME280;4364;52.426;9.424;2023-11-21T05:39:24;100730.50;;;7.15;100.00
8653;BME280;4364;52.426;9.424;2023-11-21T05:41:51;100731.34;;;7.21;100.00
8653;BME280;4364;52.426;9.424;2023-11-21T05:44:18;100734.88;;;7.21;100.00
8653;BME280;4364;52.426;9.424;2023-11-21T05:46:44;100744.88;;;7.21;100.00
8653;BME280;4364;52.426;9.424;2023-11-21T05:49:11;100741.63;;;7.19;100.00
8653;BME280;4364;52.426;9.424;2023-11-21T05:51:38;100737.56;;;7.21;100.00
8653;BME280;4364;52.426;9.424;2023-11-21T05:54:05;100749.72;;;7.19;100.00
8653;BME280;4364;52.426;9.424;2023-11-21T05:56:31;100750.03;;;7.22;100.00
8653;BME280;4364;52.426;9.424;2023-11-21T05:58:58;100751.44;;;7.25;100.00
8653;BME280;4364;52.426;9.424;2023-11-21T06:01:25;100753.25;;;7.19;100.00
8653;BME280;4364;52.426;9.424;2023-11-21T06:03:54;100750.28;;;7.21;100.00
8653;BME280;4364;52.426;9.424;2023-11-21T06:06:24;100760.25;;;7.15;100.00
8653;BME280;4364;52.426;9.424;2023-11-21T06:08:51;100756.75;;;7.20;100.00
8653;BME280;4364;52.426;9.424;2023-11-21T06:11:18;100765.75;;;7.26;100.00
8653;BME280;4364;52.426;9.424;2023-11-21T06:13:45;100767.56;;;7.20;100.00
8653;BME280;4364;52.426;9.424;2023-11-21T06:16:11;100776.78;;;7.19;100.00
8653;BME280;4364;52.426;9.424;2023-11-21T06:18:43;100783.81;;;7.20;100.00
8653;BME280;4364;52.426;9.424;2023-11-21T06:21:10;100783.31;;;7.23;100.00
8653;BME280;4364;52.426;9.424;2023-11-21T06:23:37;100787.66;;;7.24;100.00
8653;BME280;4364;52.426;9.424;2023-11-21T06:26:04;100790.28;;;7.19;100.00
8653;BME280;4364;52.426;9.424;2023-11-21T06:28:31;100796.25;;;7.21;100.00
8653;BME280;4364;52.426;9.424;2023-11-21T06:30:58;100798.41;;;7.19;100.00
8653;BME280;4364;52.426;9.424;2023-11-21T06:33:25;100808.72;;;7.22;100.00
8653;BME280;4364;52.426;9.424;2023-11-21T06:35:54;100812.25;;;7.22;100.00
8653;BME280;4364;52.426;9.424;2023-11-21T06:38:21;100819.53;;;7.22;100.00
8653;BME280;4364;52.426;9.424;2023-11-21T06:40:48;100820.59;;;7.21;100.00
8653;BME280;4364;52.426;9.424;2023-11-21T06:43:14;100827.91;;;7.20;100.00
8653;BME280;4364;52.426;9.424;2023-11-21T06:45:41;100833.31;;;7.20;100.00
8653;BME280;4364;52.426;9.424;2023-11-21T06:48:08;100835.78;;;7.22;100.00
8653;BME280;4364;52.426;9.424;2023-11-21T06:50:34;100847.97;;;7.24;100.00
8653;BME280;4364;52.426;9.424;2023-11-21T06:53:02;100850.09;;;7.22;100.00
8653;BME280;4364;52.426;9.424;2023-11-21T06:55:30;100846.09;;;7.25;100.00
8653;BME280;4364;52.426;9.424;2023-11-21T06:57:57;100860.69;;;7.24;100.00
8653;BME280;4364;52.426;9.424;2023-11-21T07:00:24;100862.69;;;7.34;100.00
8653;BME280;4364;52.426;9.424;2023-11-21T07:02:51;100860.69;;;7.46;100.00
8653;BME280;4364;52.426;9.424;2023-11-21T07:05:18;100861.78;;;7.45;100.00
8653;BME280;4364;52.426;9.424;2023-11-21T07:07:48;100867.94;;;7.40;100.00
8653;BME280;4364;52.426;9.424;2023-11-21T07:10:15;100876.22;;;7.34;100.00
8653;BME280;4364;52.426;9.424;2023-11-21T07:12:43;100882.25;;;7.19;100.00
8653;BME280;4364;52.426;9.424;2023-11-21T07:15:10;100879.22;;;7.15;100.00
8653;BME280;4364;52.426;9.424;2023-11-21T07:17:36;100885.81;;;7.02;100.00
8653;BME280;4364;52.426;9.424;2023-11-21T07:20:07;100884.50;;;7.05;100.00
8653;BME280;4364;52.426;9.424;2023-11-21T07:22:33;100899.81;;;6.99;100.00
8653;BME280;4364;52.426;9.424;2023-11-21T07:25:02;100902.28;;;7.01;100.00
8653;BME280;4364;52.426;9.424;2023-11-21T07:27:28;100910.31;;;6.96;100.00
8653;BME280;4364;52.426;9.424;2023-11-21T07:29:55;100906.13;;;6.88;100.00
8653;BME280;4364;52.426;9.424;2023-11-21T07:32:22;100912.53;;;6.82;100.00
8653;BME280;4364;52.426;9.424;2023-11-21T07:34:48;100919.16;;;6.74;100.00
8653;BME280;4364;52.426;9.424;2023-11-21T07:37:15;100928.31;;;6.73;100.00
8653;BME280;4364;52.426;9.424;2023-11-21T07:39:42;100929.56;;;6.65;100.00
8653;BME280;4364;52.426;9.424;2023-11-21T07:42:09;100939.81;;;6.63;100.00
8653;BME280;4364;52.426;9.424;2023-11-21T07:44:36;100946.66;;;6.54;100.00
8653;BME280;4364;52.426;9.424;2023-11-21T07:47:02;100946.91;;;6.53;100.00
8653;BME280;4364;52.426;9.424;2023-11-21T07:49:31;100961.13;;;6.48;100.00
8653;BME280;4364;52.426;9.424;2023-11-21T07:51:57;100958.44;;;6.48;100.00
8653;BME280;4364;52.426;9.424;2023-11-21T07:54:24;100954.44;;;6.51;100.00
8653;BME280;4364;52.426;9.424;2023-11-21T07:56:51;100955.97;;;6.46;100.00
8653;BME280;4364;52.426;9.424;2023-11-21T07:59:17;100962.31;;;6.52;100.00
8653;BME280;4364;52.426;9.424;2023-11-21T08:01:44;100961.75;;;6.50;100.00
8653;BME280;4364;52.426;9.424;2023-11-21T08:04:12;100972.59;;;6.38;100.00
8653;BME280;4364;52.426;9.424;2023-11-21T08:06:39;100980.41;;;6.52;100.00
8653;BME280;4364;52.426;9.424;2023-11-21T08:09:05;100979.88;;;6.38;100.00
8653;BME280;4364;52.426;9.424;2023-11-21T08:11:34;100980.94;;;6.37;100.00
8653;BME280;4364;52.426;9.424;2023-11-21T08:14:01;100982.47;;;6.33;100.00
8653;BME280;4364;52.426;9.424;2023-11-21T08:16:27;100985.03;;;6.39;100.00
8653;BME280;4364;52.426;9.424;2023-11-21T08:18:54;100995.59;;;6.41;100.00
8653;BME280;4364;52.426;9.424;2023-11-21T08:21:21;100997.97;;;6.37;100.00
8653;BME280;4364;52.426;9.424;2023-11-21T08:23:50;101004.41;;;6.36;100.00
8653;BME280;4364;52.426;9.424;2023-11-21T08:26:21;101001.56;;;6.43;100.00
8653;BME280;4364;52.426;9.424;2023-11-21T08:28:48;101005.03;;;6.38;100.00
8653;BME280;4364;52.426;9.424;2023-11-21T08:31:15;101008.88;;;6.42;100.00
8653;BME280;4364;52.426;9.424;2023-11-21T08:33:42;101003.69;;;6.41;100.00
8653;BME280;4364;52.426;9.424;2023-11-21T08:36:09;101012.63;;;6.41;100.00
8653;BME280;4364;52.426;9.424;2023-11-21T08:38:37;101017.78;;;6.43;100.00
8653;BME280;4364;52.426;9.424;2023-11-21T08:41:07;101024.84;;;6.44;100.00
8653;BME280;4364;52.426;9.424;2023-11-21T08:43:35;101019.81;;;6.36;100.00
8653;BME280;4364;52.426;9.424;2023-11-21T08:46:02;101034.13;;;6.36;100.00
8653;BME280;4364;52.426;9.424;2023-11-21T08:48:32;101044.50;;;6.27;100.00
8653;BME280;4364;52.426;9.424;2023-11-21T08:50:58;101051.47;;;6.23;100.00
8653;BME280;4364;52.426;9.424;2023-11-21T08:53:26;101055.06;;;6.29;100.00
8653;BME280;4364;52.426;9.424;2023-11-21T08:55:53;101061.53;;;6.28;100.00
8653;BME280;4364;52.426;9.424;2023-11-21T08:58:20;101060.03;;;6.20;100.00
8653;BME280;4364;52.426;9.424;2023-11-21T09:00:47;101075.88;;;6.28;100.00
8653;BME280;4364;52.426;9.424;2023-11-21T09:03:14;101072.22;;;6.23;100.00
8653;BME280;4364;52.426;9.424;2023-11-21T09:05:41;101073.88;;;6.24;100.00
8653;BME280;4364;52.426;9.424;2023-11-21T09:08:07;101083.97;;;6.28;100.00
8653;BME280;4364;52.426;9.424;2023-11-21T09:10:34;101082.88;;;6.29;100.00
8653;BME280;4364;52.426;9.424;2023-11-21T09:13:03;101083.84;;;6.35;100.00
8653;BME280;4364;52.426;9.424;2023-11-21T09:15:30;101084.31;;;6.32;100.00
8653;BME280;4364;52.426;9.424;2023-11-21T09:17:56;101089.13;;;6.30;100.00
8653;BME280;4364;52.426;9.424;2023-11-21T09:20:23;101088.91;;;6.32;100.00
8653;BME280;4364;52.426;9.424;2023-11-21T09:22:50;101089.13;;;6.30;100.00
8653;BME280;4364;52.426;9.424;2023-11-21T09:25:16;101100.16;;;6.28;100.00
8653;BME280;4364;52.426;9.424;2023-11-21T09:27:43;101102.53;;;6.13;100.00
8653;BME280;4364;52.426;9.424;2023-11-21T09:30:10;101103.47;;;6.19;100.00
8653;BME280;4364;52.426;9.424;2023-11-21T09:32:40;101114.16;;;6.25;100.00
8653;BME280;4364;52.426;9.424;2023-11-21T09:35:08;101125.66;;;6.21;100.00
8653;BME280;4364;52.426;9.424;2023-11-21T09:37:35;101123.88;;;6.26;100.00
8653;BME280;4364;52.426;9.424;2023-11-21T09:40:05;101125.06;;;6.30;100.00
8653;BME280;4364;52.426;9.424;2023-11-21T09:42:40;101127.53;;;6.32;100.00
8653;BME280;4364;52.426;9.424;2023-11-21T09:45:25;101128.09;;;6.34;100.00
8653;BME280;4364;52.426;9.424;2023-11-21T09:47:53;101125.16;;;6.36;100.00
8653;BME280;4364;52.426;9.424;2023-11-21T09:50:23;101127.63;;;6.37;100.00
8653;BME280;4364;52.426;9.424;2023-11-21T09:55:42;101151.13;;;6.37;100.00
8653;BME280;4364;52.426;9.424;2023-11-21T09:58:10;101158.72;;;6.40;100.00
8653;BME280;4364;52.426;9.424;2023-11-21T10:00:41;101164.13;;;6.52;100.00
8653;BME280;4364;52.426;9.424;2023-11-21T10:03:09;101169.06;;;6.43;100.00
8653;BME280;4364;52.426;9.424;2023-11-21T10:05:37;101165.09;;;6.45;100.00
8653;BME280;4364;52.426;9.424;2023-11-21T10:08:10;101172.81;;;6.54;100.00
8653;BME280;4364;52.426;9.424;2023-11-21T10:10:43;101166.56;;;6.53;100.00
8653;BME280;4364;52.426;9.424;2023-11-21T10:13:17;101177.88;;;6.50;100.00
8653;BME280;4364;52.426;9.424;2023-11-21T10:15:50;101171.63;;;6.49;100.00
8653;BME280;4364;52.426;9.424;2023-11-21T10:18:17;101174.69;;;6.53;100.00
8653;BME280;4364;52.426;9.424;2023-11-21T10:20:45;101189.16;;;6.47;100.00
8653;BME280;4364;52.426;9.424;2023-11-21T10:23:20;101189.59;;;6.56;100.00
8653;BME280;4364;52.426;9.424;2023-11-21T10:25:50;101194.53;;;6.59;100.00
8653;BME280;4364;52.426;9.424;2023-11-21T10:28:18;101195.00;;;6.56;100.00
8653;BME280;4364;52.426;9.424;2023-11-21T10:30:45;101193.72;;;6.58;100.00
8653;BME280;4364;52.426;9.424;2023-11-21T10:33:11;101198.28;;;6.58;100.00
8653;BME280;4364;52.426;9.424;2023-11-21T10:35:42;101206.53;;;6.51;100.00
8653;BME280;4364;52.426;9.424;2023-11-21T10:38:13;101198.44;;;6.39;100.00
8653;BME280;4364;52.426;9.424;2023-11-21T10:40:40;101212.63;;;6.46;100.00
8653;BME280;4364;52.426;9.424;2023-11-21T10:43:09;101212.75;;;6.40;100.00
8653;BME280;4364;52.426;9.424;2023-11-21T10:45:37;101223.22;;;6.36;100.00
8653;BME280;4364;52.426;9.424;2023-11-21T10:48:08;101220.63;;;6.41;100.00
8653;BME280;4364;52.426;9.424;2023-11-21T10:50:35;101219.94;;;6.46;100.00
8653;BME280;4364;52.426;9.424;2023-11-21T10:53:04;101227.56;;;6.49;100.00
8653;BME280;4364;52.426;9.424;2023-11-21T10:55:32;101226.03;;;6.41;100.00
8653;BME280;4364;52.426;9.424;2023-11-21T10:58:01;101220.59;;;6.53;100.00
8653;BME280;4364;52.426;9.424;2023-11-21T11:00:29;101223.56;;;6.52;100.00
8653;BME280;4364;52.426;9.424;2023-11-21T11:02:56;101224.84;;;6.49;100.00
8653;BME280;4364;52.426;9.424;2023-11-21T11:05:29;101219.22;;;6.51;100.00
8653;BME280;4364;52.426;9.424;2023-11-21T11:08:08;101221.00;;;6.45;100.00
8653;BME280;4364;52.426;9.424;2023-11-21T11:10:35;101212.50;;;6.53;100.00
8653;BME280;4364;52.426;9.424;2023-11-21T11:13:02;101227.66;;;6.54;100.00
8653;BME280;4364;52.426;9.424;2023-11-21T11:15:28;101226.63;;;6.55;100.00
8653;BME280;4364;52.426;9.424;2023-11-21T11:17:55;101218.88;;;6.47;100.00
8653;BME280;4364;52.426;9.424;2023-11-21T11:20:32;101226.13;;;6.46;100.00
8653;BME280;4364;52.426;9.424;2023-11-21T11:31:37;101249.88;;;6.56;100.00
8653;BME280;4364;52.426;9.424;2023-11-21T11:34:20;101255.38;;;6.61;100.00
8653;BME280;4364;52.426;9.424;2023-11-21T11:39:30;101257.03;;;6.62;100.00
8653;BME280;4364;52.426;9.424;2023-11-21T11:42:02;101269.38;;;6.58;100.00
8653;BME280;4364;52.426;9.424;2023-11-21T11:44:47;101271.13;;;6.53;100.00
8653;BME280;4364;52.426;9.424;2023-11-21T11:47:31;101270.56;;;6.62;100.00
8653;BME280;4364;52.426;9.424;2023-11-21T11:50:06;101266.19;;;6.61;100.00
8653;BME280;4364;52.426;9.424;2023-11-21T11:52:42;101273.84;;;6.64;100.00
8653;BME280;4364;52.426;9.424;2023-11-21T11:55:14;101269.63;;;6.68;100.00
8653;BME280;4364;52.426;9.424;2023-11-21T11:57:42;101267.72;;;6.69;100.00
8653;BME280;4364;52.426;9.424;2023-11-21T12:02:48;101274.28;;;6.73;100.00
8653;BME280;4364;52.426;9.424;2023-11-21T12:05:17;101276.41;;;6.71;100.00
8653;BME280;4364;52.426;9.424;2023-11-21T12:07:49;101269.63;;;6.68;100.00
8653;BME280;4364;52.426;9.424;2023-11-21T12:10:18;101278.19;;;6.65;100.00
8653;BME280;4364;52.426;9.424;2023-11-21T12:12:46;101289.91;;;6.83;100.00
8653;BME280;4364;52.426;9.424;2023-11-21T12:15:13;101291.69;;;6.77;100.00
8653;BME280;4364;52.426;9.424;2023-11-21T12:17:41;101298.13;;;6.76;100.00
8653;BME280;4364;52.426;9.424;2023-11-21T12:20:11;101291.34;;;6.74;100.00
8653;BME280;4364;52.426;9.424;2023-11-21T12:25:11;101297.53;;;6.86;100.00
8653;BME280;4364;52.426;9.424;2023-11-21T12:27:43;101302.72;;;6.76;100.00
8653;BME280;4364;52.426;9.424;2023-11-21T12:30:11;101306.16;;;6.59;100.00
8653;BME280;4364;52.426;9.424;2023-11-21T12:32:40;101313.91;;;6.67;100.00
8653;BME280;4364;52.426;9.424;2023-11-21T12:35:11;101308.38;;;6.74;100.00
8653;BME280;4364;52.426;9.424;2023-11-21T12:37:39;101317.53;;;6.73;100.00
8653;BME280;4364;52.426;9.424;2023-11-21T12:40:07;101324.59;;;6.74;100.00
8653;BME280;4364;52.426;9.424;2023-11-21T12:42:34;101326.13;;;6.70;100.00
8653;BME280;4364;52.426;9.424;2023-11-21T12:47:44;101322.94;;;6.73;100.00
8653;BME280;4364;52.426;9.424;2023-11-21T12:50:15;101324.59;;;6.74;100.00
8653;BME280;4364;52.426;9.424;2023-11-21T12:52:45;101331.78;;;6.68;100.00
8653;BME280;4364;52.426;9.424;2023-11-21T12:55:17;101328.00;;;6.70;100.00
8653;BME280;4364;52.426;9.424;2023-11-21T12:57:44;101325.19;;;6.64;100.00
8653;BME280;4364;52.426;9.424;2023-11-21T13:00:12;101324.47;;;6.69;100.00
8653;BME280;4364;52.426;9.424;2023-11-21T13:02:51;101332.22;;;6.77;100.00
8653;BME280;4364;52.426;9.424;2023-11-21T13:05:32;101329.66;;;6.71;100.00
8653;BME280;4364;52.426;9.424;2023-11-21T13:08:01;101333.50;;;6.75;100.00
8653;BME280;4364;52.426;9.424;2023-11-21T13:10:31;101333.03;;;6.78;100.00
8653;BME280;4364;52.426;9.424;2023-11-21T13:13:00;101346.56;;;6.90;100.00
8653;BME280;4364;52.426;9.424;2023-11-21T13:15:27;101343.03;;;6.89;100.00
8653;BME280;4364;52.426;9.424;2023-11-21T13:17:54;101364.91;;;6.88;100.00
8653;BME280;4364;52.426;9.424;2023-11-21T13:20:26;101361.97;;;6.77;100.00
8653;BME280;4364;52.426;9.424;2023-11-21T13:22:55;101382.16;;;6.63;100.00
8653;BME280;4364;52.426;9.424;2023-11-21T13:25:29;101380.75;;;6.60;100.00
8653;BME280;4364;52.426;9.424;2023-11-21T13:27:58;101383.25;;;6.62;100.00
8653;BME280;4364;52.426;9.424;2023-11-21T13:30:28;101379.22;;;6.76;100.00
8653;BME280;4364;52.426;9.424;2023-11-21T13:33:01;101395.09;;;6.73;100.00
8653;BME280;4364;52.426;9.424;2023-11-21T13:35:28;101394.63;;;6.76;100.00
8653;BME280;4364;52.426;9.424;2023-11-21T13:38:11;101395.78;;;6.68;100.00